createdAt,value
2023-04-04T00:02:16.876Z,84.16
2023-04-04T00:05:02.303Z,84.23
2023-04-04T00:07:47.820Z,85.13
2023-04-04T00:10:32.816Z,85.15
2023-04-04T00:13:18.053Z,85.66
2023-04-04T00:16:03.717Z,85.42
2023-04-04T00:18:48.951Z,85.66
2023-04-04T00:21:34.378Z,85.81
2023-04-04T00:24:19.802Z,85.88
2023-04-04T00:27:04.841Z,87.01
2023-04-04T00:29:50.089Z,87.93
2023-04-04T00:32:35.184Z,88.16
2023-04-04T00:35:20.623Z,88.54
2023-04-04T00:38:05.716Z,88.91
2023-04-04T00:40:51.600Z,88.64
2023-04-04T00:43:37.778Z,88.29
2023-04-04T00:46:24.965Z,88.83
2023-04-04T00:49:09.946Z,90.60
2023-04-04T00:51:55.368Z,92.18
2023-04-04T00:54:40.836Z,93.26
2023-04-04T00:57:28.739Z,93.67
2023-04-04T01:00:15.366Z,93.09
2023-04-04T01:03:00.964Z,92.34
2023-04-04T01:05:46.956Z,92.82
2023-04-04T01:08:33.125Z,93.23
2023-04-04T01:11:18.343Z,93.74
2023-04-04T01:14:03.653Z,93.78
2023-04-04T01:16:51.108Z,93.92
2023-04-04T01:19:49.460Z,94.30
2023-04-04T01:22:35.963Z,94.31
2023-04-04T01:25:30.197Z,93.93
2023-04-04T01:28:15.718Z,93.53
2023-04-04T01:31:02.988Z,93.23
2023-04-04T01:33:58.900Z,93.19
2023-04-04T01:37:17.173Z,94.11
2023-04-04T01:40:14.979Z,94.00
2023-04-04T01:43:00.354Z,94.44
2023-04-04T01:45:46.265Z,94.81
2023-04-04T01:48:31.499Z,94.77
2023-04-04T01:51:17.182Z,94.27
2023-04-04T01:54:02.033Z,95.00
2023-04-04T01:56:47.214Z,94.74
2023-04-04T01:59:32.574Z,95.07
2023-04-04T02:02:17.706Z,94.47
2023-04-04T02:05:04.222Z,94.13
2023-04-04T02:07:52.291Z,94.57
2023-04-04T02:10:37.323Z,93.90
2023-04-04T02:13:22.083Z,94.42
2023-04-04T02:16:07.245Z,94.36
2023-04-04T02:18:53.012Z,93.64
2023-04-04T02:21:37.911Z,93.88
2023-04-04T02:24:23.009Z,93.87
2023-04-04T02:27:08.105Z,94.45
2023-04-04T02:29:53.919Z,94.43
2023-04-04T02:32:40.020Z,94.63
2023-04-04T02:35:25.796Z,95.05
2023-04-04T02:38:10.867Z,94.66
2023-04-04T02:40:55.928Z,94.40
2023-04-04T02:43:41.168Z,95.03
2023-04-04T02:46:26.122Z,95.29
2023-04-04T02:49:12.595Z,94.40
2023-04-04T02:51:58.114Z,95.71
2023-04-04T02:54:43.436Z,95.31
2023-04-04T02:57:28.737Z,96.14
2023-04-04T03:00:13.822Z,95.64
2023-04-04T03:02:59.428Z,95.96
2023-04-04T03:05:44.987Z,95.85
2023-04-04T03:08:30.548Z,96.51
2023-04-04T03:11:21.240Z,97.19
2023-04-04T03:14:07.558Z,96.52
2023-04-04T03:16:53.693Z,96.44
2023-04-04T03:19:38.805Z,96.15
2023-04-04T03:22:23.993Z,96.57
2023-04-04T03:25:09.741Z,96.73
2023-04-04T03:27:54.990Z,96.31
2023-04-04T03:30:40.436Z,97.33
2023-04-04T03:33:25.764Z,97.76
2023-04-04T03:36:12.774Z,97.21
2023-04-04T03:38:57.966Z,98.10
2023-04-04T03:41:43.222Z,98.00
2023-04-04T03:44:28.205Z,98.17
2023-04-04T03:47:16.569Z,98.37
2023-04-04T03:50:02.415Z,99.01
2023-04-04T03:52:47.736Z,98.83
2023-04-04T03:55:33.975Z,99.38
2023-04-04T03:58:19.682Z,99.56
2023-04-04T04:01:05.042Z,100.00
2023-04-04T04:03:50.454Z,100.00
2023-04-04T04:06:35.879Z,99.90
2023-04-04T04:09:21.325Z,99.70
2023-04-04T04:12:06.892Z,99.34
2023-04-04T04:14:52.057Z,99.86
2023-04-04T04:17:41.119Z,99.65
2023-04-04T04:20:26.613Z,99.64
2023-04-04T04:23:11.772Z,99.95
2023-04-04T04:25:56.893Z,99.88
2023-04-04T04:28:42.159Z,99.52
2023-04-04T04:31:27.765Z,99.77
2023-04-04T04:34:13.689Z,99.52
2023-04-04T04:36:59.369Z,100.00
2023-04-04T04:39:44.291Z,100.00
2023-04-04T04:42:29.692Z,100.00
2023-04-04T04:45:14.830Z,99.98
2023-04-04T04:48:00.115Z,100.00
2023-04-04T04:50:46.087Z,100.00
2023-04-04T04:53:31.436Z,100.00
2023-04-04T04:56:16.681Z,100.00
2023-04-04T04:59:01.737Z,100.00
2023-04-04T05:01:46.957Z,100.00
2023-04-04T05:04:32.445Z,100.00
2023-04-04T05:07:17.590Z,100.00
2023-04-04T05:10:03.157Z,100.00
2023-04-04T05:12:48.254Z,100.00
2023-04-04T05:15:33.123Z,100.00
2023-04-04T05:18:18.311Z,100.00
2023-04-04T05:21:03.882Z,100.00
2023-04-04T05:23:48.813Z,100.00
2023-04-04T05:26:35.048Z,100.00
2023-04-04T05:29:20.315Z,100.00
2023-04-04T05:32:05.725Z,100.00
2023-04-04T05:34:50.855Z,100.00
2023-04-04T05:37:39.391Z,100.00
2023-04-04T05:40:24.633Z,100.00
2023-04-04T05:43:09.836Z,100.00
2023-04-04T05:45:55.552Z,100.00
2023-04-04T05:48:41.075Z,100.00
2023-04-04T05:51:26.326Z,100.00
2023-04-04T05:54:11.424Z,100.00
2023-04-04T05:56:56.496Z,100.00
2023-04-04T05:59:41.677Z,100.00
2023-04-04T06:02:27.034Z,100.00
2023-04-04T06:05:12.368Z,100.00
2023-04-04T06:07:58.162Z,100.00
2023-04-04T06:10:43.607Z,100.00
2023-04-04T06:13:28.824Z,100.00
2023-04-04T06:16:14.142Z,100.00
2023-04-04T06:18:59.246Z,100.00
2023-04-04T06:21:44.584Z,100.00
2023-04-04T06:24:29.804Z,100.00
2023-04-04T06:27:14.949Z,100.00
2023-04-04T06:30:00.297Z,100.00
2023-04-04T06:32:45.526Z,100.00
2023-04-04T06:35:30.980Z,100.00
2023-04-04T06:38:16.030Z,100.00
2023-04-04T06:41:01.312Z,100.00
2023-04-04T06:43:49.390Z,100.00
2023-04-04T06:46:37.408Z,100.00
2023-04-04T06:49:22.223Z,100.00
2023-04-04T06:52:07.154Z,100.00
2023-04-04T06:54:52.666Z,100.00
2023-04-04T06:57:38.537Z,100.00
2023-04-04T07:00:23.583Z,100.00
2023-04-04T07:03:08.841Z,100.00
2023-04-04T07:05:55.436Z,100.00
2023-04-04T07:08:40.777Z,100.00
2023-04-04T07:11:27.192Z,100.00
2023-04-04T07:14:12.764Z,100.00
2023-04-04T07:16:58.284Z,100.00
2023-04-04T07:19:43.580Z,100.00
2023-04-04T07:22:28.371Z,100.00
2023-04-04T07:25:13.561Z,100.00
2023-04-04T07:28:09.515Z,100.00
2023-04-04T07:31:01.823Z,100.00
2023-04-04T07:33:46.772Z,100.00
2023-04-04T07:36:31.875Z,100.00
2023-04-04T07:39:17.116Z,100.00
2023-04-04T07:42:02.321Z,100.00
2023-04-04T07:44:47.268Z,100.00
2023-04-04T07:47:32.534Z,100.00
2023-04-04T07:50:17.581Z,100.00
2023-04-04T07:53:02.841Z,100.00
2023-04-04T07:55:48.370Z,100.00
2023-04-04T07:58:34.278Z,99.61
2023-04-04T08:01:19.368Z,98.82
2023-04-04T08:04:05.722Z,97.87
2023-04-04T08:06:51.652Z,96.96
2023-04-04T08:09:36.794Z,95.66
2023-04-04T08:12:22.076Z,92.62
2023-04-04T08:15:07.863Z,90.06
2023-04-04T08:17:53.472Z,89.36
2023-04-04T08:20:39.021Z,87.97
2023-04-04T08:23:24.571Z,86.41
2023-04-04T08:26:09.814Z,84.69
2023-04-04T08:28:55.343Z,83.28
2023-04-04T08:31:41.330Z,82.24
2023-04-04T08:34:26.244Z,80.95
2023-04-04T08:37:11.434Z,80.24
2023-04-04T08:39:56.765Z,79.25
2023-04-04T08:42:44.348Z,79.64
2023-04-04T08:45:31.512Z,79.11
2023-04-04T08:48:17.966Z,79.03
2023-04-04T08:51:04.709Z,78.13
2023-04-04T08:53:51.283Z,78.09
2023-04-04T08:56:36.508Z,77.75
2023-04-04T08:59:22.112Z,77.66
2023-04-04T09:02:11.057Z,76.65
2023-04-04T09:05:05.424Z,76.54
2023-04-04T09:07:53.155Z,75.65
2023-04-04T09:10:40.041Z,75.13
2023-04-04T09:13:25.410Z,75.23
2023-04-04T09:16:10.510Z,74.89
2023-04-04T09:18:55.754Z,74.58
2023-04-04T09:21:47.125Z,73.89
2023-04-04T09:24:43.265Z,73.13
2023-04-04T09:27:28.404Z,72.62
2023-04-04T09:30:13.963Z,71.55
2023-04-04T09:33:05.006Z,70.51
2023-04-04T09:35:54.484Z,69.71
2023-04-04T09:38:43.285Z,69.07
2023-04-04T09:41:29.430Z,68.54
2023-04-04T09:44:16.587Z,68.51
2023-04-04T09:50:22.986Z,66.71
2023-04-04T09:53:08.651Z,66.83
2023-04-04T09:55:55.627Z,64.97
2023-04-04T09:58:52.483Z,64.89
2023-04-04T10:01:46.140Z,63.82
2023-04-04T10:04:32.332Z,63.25
2023-04-04T10:07:18.690Z,62.77
2023-04-04T10:10:09.061Z,61.57
2023-04-04T10:12:57.882Z,60.02
2023-04-04T10:15:44.720Z,59.16
2023-04-04T10:18:32.401Z,56.65
2023-04-04T10:21:17.766Z,56.19
2023-04-04T10:24:09.272Z,54.98
2023-04-04T10:26:55.427Z,54.96
2023-04-04T10:29:40.559Z,54.22
2023-04-04T10:32:53.840Z,53.74
2023-04-04T10:35:43.935Z,54.76
2023-04-04T10:38:31.578Z,52.61
2023-04-04T10:41:17.933Z,52.08
2023-04-04T10:44:17.531Z,51.33
2023-04-04T10:47:14.652Z,51.50
2023-04-04T10:50:00.679Z,51.88
2023-04-04T10:52:46.408Z,51.70
2023-04-04T10:55:33.214Z,51.10
2023-04-04T10:58:18.538Z,52.36
2023-04-04T11:01:03.909Z,51.04
2023-04-04T11:04:20.734Z,49.99
2023-04-04T11:07:10.231Z,49.56
2023-04-04T11:09:56.733Z,50.00
2023-04-04T11:12:46.112Z,49.98
2023-04-04T11:15:58.767Z,49.87
2023-04-04T11:18:45.364Z,50.23
2023-04-04T11:21:32.661Z,49.56
2023-04-04T11:24:17.745Z,49.28
2023-04-04T11:27:06.922Z,48.69
2023-04-04T11:29:55.380Z,48.66
2023-04-04T11:32:59.913Z,48.57
2023-04-04T11:35:50.255Z,47.45
2023-04-04T11:38:35.980Z,47.76
2023-04-04T11:41:21.588Z,47.82
2023-04-04T11:44:10.322Z,47.49
2023-04-04T11:47:04.349Z,48.02
2023-04-04T11:49:51.732Z,48.26
2023-04-04T11:52:38.311Z,47.36
2023-04-04T11:55:23.779Z,47.98
2023-04-04T11:58:12.812Z,47.66
2023-04-04T12:00:58.993Z,47.08
2023-04-04T12:03:44.330Z,47.19
2023-04-04T12:06:32.744Z,47.35
2023-04-04T12:09:20.249Z,47.29
2023-04-04T12:12:07.581Z,46.49
2023-04-04T12:15:00.214Z,45.80
2023-04-04T12:17:51.856Z,46.05
2023-04-04T12:20:41.507Z,46.25
2023-04-04T12:23:28.505Z,46.12
2023-04-04T12:26:14.032Z,45.72
2023-04-04T12:29:00.782Z,45.80
2023-04-04T12:31:47.228Z,45.21
2023-04-04T12:34:34.601Z,44.91
2023-04-04T12:37:22.314Z,44.44
2023-04-04T12:40:07.631Z,44.46
2023-04-04T12:42:53.050Z,44.67
2023-04-04T12:45:42.278Z,44.86
2023-04-04T12:48:29.669Z,44.70
2023-04-04T12:51:15.950Z,44.47
2023-04-04T12:54:01.369Z,44.53
2023-04-04T12:56:46.729Z,44.38
2023-04-04T12:59:34.000Z,43.86
2023-04-04T13:02:22.116Z,43.39
2023-04-04T13:05:10.136Z,43.29
2023-04-04T13:08:06.750Z,43.55
2023-04-04T13:10:59.678Z,43.01
2023-04-04T13:16:37.060Z,41.77
2023-04-04T13:19:23.078Z,41.41
2023-04-04T13:22:09.526Z,41.58
2023-04-04T13:24:54.354Z,41.33
2023-04-04T13:27:39.429Z,40.56
2023-04-04T13:30:24.704Z,40.22
2023-04-04T13:33:09.984Z,39.11
2023-04-04T13:35:55.263Z,38.99
2023-04-04T13:38:40.416Z,39.16
2023-04-04T13:41:25.869Z,39.61
2023-04-04T13:44:10.854Z,38.80
2023-04-04T13:46:56.045Z,39.23
2023-04-04T13:49:41.173Z,38.67
2023-04-04T13:52:26.375Z,38.43
2023-04-04T13:55:11.752Z,38.63
2023-04-04T13:57:57.216Z,37.86
2023-04-04T14:00:42.909Z,37.32
2023-04-04T14:03:28.071Z,37.07
2023-04-04T14:06:13.416Z,36.23
2023-04-04T14:08:58.682Z,36.63
2023-04-04T14:11:43.984Z,35.89
2023-04-04T14:14:29.351Z,36.23
2023-04-04T14:17:14.502Z,36.01
2023-04-04T14:19:59.908Z,35.82
2023-04-04T14:22:45.053Z,35.20
2023-04-04T14:25:30.060Z,35.24
2023-04-04T14:28:14.985Z,34.76
2023-04-04T14:31:00.245Z,34.23
2023-04-04T14:33:45.641Z,33.69
2023-04-04T14:36:31.696Z,35.35
2023-04-04T14:39:17.072Z,34.57
2023-04-04T14:42:01.927Z,35.70
2023-04-04T14:44:47.112Z,34.85
2023-04-04T14:47:32.318Z,34.19
2023-04-04T14:50:17.708Z,34.38
2023-04-04T14:53:03.135Z,34.57
2023-04-04T14:55:48.330Z,33.51
2023-04-04T14:58:33.521Z,33.31
2023-04-04T15:01:21.371Z,32.62
2023-04-04T15:04:07.333Z,31.85
2023-04-04T15:06:53.542Z,32.89
2023-04-04T15:09:38.641Z,31.41
2023-04-04T15:12:23.586Z,32.26
2023-04-04T15:15:09.133Z,32.87
2023-04-04T15:17:54.562Z,32.88
2023-04-04T15:20:40.473Z,32.18
2023-04-04T15:23:25.546Z,31.66
2023-04-04T15:26:10.693Z,32.57
2023-04-04T15:28:55.749Z,31.52
2023-04-04T15:31:41.066Z,31.90
2023-04-04T15:34:26.373Z,30.31
2023-04-04T15:37:12.230Z,30.57
2023-04-04T15:39:57.686Z,31.15
2023-04-04T15:42:42.874Z,31.98
2023-04-04T15:45:28.047Z,30.97
2023-04-04T15:48:13.353Z,32.52
2023-04-04T15:51:02.507Z,31.53
2023-04-04T15:53:47.988Z,32.23
2023-04-04T15:56:33.252Z,32.87
2023-04-04T15:59:18.201Z,32.59
2023-04-04T16:02:06.372Z,32.78
2023-04-04T16:04:51.692Z,32.66
2023-04-04T16:07:36.981Z,32.23
2023-04-04T16:10:22.112Z,32.29
2023-04-04T16:13:07.310Z,33.84
2023-04-04T16:15:52.828Z,34.28
2023-04-04T16:18:38.000Z,34.44
2023-04-04T16:21:23.324Z,35.98
2023-04-04T16:24:08.945Z,35.51
2023-04-04T16:26:54.119Z,35.71
2023-04-04T16:29:39.078Z,35.63
2023-04-04T16:32:24.145Z,36.42
2023-04-04T16:35:09.830Z,36.47
2023-04-04T16:37:55.449Z,37.57
2023-04-04T16:40:40.944Z,37.61
2023-04-04T16:43:27.028Z,37.76
2023-04-04T16:46:11.933Z,38.94
2023-04-04T16:48:57.028Z,38.50
2023-04-04T16:51:41.952Z,38.26
2023-04-04T16:54:27.285Z,38.17
2023-04-04T16:57:12.368Z,39.06
2023-04-04T16:59:57.512Z,39.71
2023-04-04T17:02:45.817Z,40.40
2023-04-04T17:05:31.202Z,39.94
2023-04-04T17:08:16.488Z,42.23
2023-04-04T17:11:01.795Z,45.24
2023-04-04T17:13:47.546Z,46.15
2023-04-04T17:16:32.446Z,47.10
2023-04-04T17:19:17.530Z,47.83
2023-04-04T17:22:03.278Z,49.18
2023-04-04T17:24:48.743Z,49.19
2023-04-04T17:27:33.760Z,49.29
2023-04-04T17:30:18.787Z,49.14
2023-04-04T17:33:04.291Z,49.17
2023-04-04T17:35:49.909Z,49.72
2023-04-04T17:38:36.044Z,50.05
2023-04-04T17:41:21.074Z,49.82
2023-04-04T17:44:06.321Z,49.81
2023-04-04T17:46:51.688Z,50.19
2023-04-04T17:49:37.169Z,50.28
2023-04-04T17:52:22.013Z,50.36
2023-04-04T17:55:08.716Z,50.13
2023-04-04T17:57:53.956Z,50.97
2023-04-04T18:00:39.568Z,51.22
2023-04-04T18:03:25.219Z,51.78
2023-04-04T18:06:10.615Z,51.67
2023-04-04T18:08:57.738Z,51.83
2023-04-04T18:11:42.995Z,51.62
2023-04-04T18:14:27.863Z,51.71
2023-04-04T18:17:13.230Z,52.07
2023-04-04T18:19:59.013Z,52.14
2023-04-04T18:22:45.746Z,52.27
2023-04-04T18:25:33.359Z,52.44
2023-04-04T18:28:18.322Z,52.97
2023-04-04T18:31:03.685Z,53.33
2023-04-04T18:33:49.894Z,53.70
2023-04-04T18:36:36.894Z,54.18
2023-04-04T18:39:22.142Z,54.57
2023-04-04T18:42:08.617Z,54.32
2023-04-04T18:44:53.882Z,54.62
2023-04-04T18:47:40.306Z,54.94
2023-04-04T18:50:26.356Z,55.23
2023-04-04T18:53:11.543Z,55.63
2023-04-04T18:55:57.892Z,56.19
2023-04-04T18:58:43.072Z,56.21
2023-04-04T19:01:28.782Z,56.28
2023-04-04T19:04:19.822Z,55.90
2023-04-04T19:07:08.885Z,55.75
2023-04-04T19:09:55.458Z,56.48
2023-04-04T19:12:40.408Z,57.07
2023-04-04T19:15:25.581Z,57.80
2023-04-04T19:18:11.834Z,57.83
2023-04-04T19:20:58.423Z,57.48
2023-04-04T19:23:43.521Z,57.60
2023-04-04T19:26:28.770Z,57.46
2023-04-04T19:29:21.062Z,57.72
2023-04-04T19:32:19.500Z,57.55
2023-04-04T19:35:20.539Z,57.74
2023-04-04T19:38:07.547Z,58.01
2023-04-04T19:40:59.193Z,58.41
2023-04-04T19:43:46.175Z,58.56
2023-04-04T19:46:33.178Z,58.79
2023-04-04T19:49:19.278Z,58.93
2023-04-04T19:52:05.689Z,59.11
2023-04-04T19:54:50.941Z,59.18
2023-04-04T19:57:37.659Z,59.55
2023-04-04T20:00:24.072Z,60.21
2023-04-04T20:03:24.082Z,60.68
2023-04-04T20:06:10.210Z,60.79
2023-04-04T20:08:57.696Z,61.31
2023-04-04T20:11:42.933Z,61.64
2023-04-04T20:14:28.651Z,62.08
2023-04-04T20:17:17.839Z,62.03
2023-04-04T20:20:08.994Z,62.26
2023-04-04T20:22:54.081Z,62.49
2023-04-04T20:25:41.823Z,63.36
2023-04-04T20:28:28.567Z,63.19
2023-04-04T20:31:17.942Z,63.42
2023-04-04T20:34:05.760Z,63.13
2023-04-04T20:36:51.044Z,63.69
2023-04-04T20:39:41.316Z,63.38
2023-04-04T20:42:26.175Z,62.46
2023-04-04T20:45:28.124Z,63.06
2023-04-04T20:48:33.885Z,63.98
2023-04-04T20:51:23.979Z,64.10
2023-04-04T20:54:09.611Z,65.40
2023-04-04T20:56:56.694Z,65.69
2023-04-04T20:59:43.585Z,65.96
2023-04-04T21:02:28.995Z,66.74
2023-04-04T21:05:27.770Z,67.50
2023-04-04T21:08:16.056Z,67.90
2023-04-04T21:11:01.328Z,68.45
2023-04-04T21:13:47.298Z,68.78
2023-04-04T21:16:32.424Z,69.66
2023-04-04T21:19:23.415Z,70.12
2023-04-04T21:22:09.036Z,70.63
2023-04-04T21:24:54.127Z,70.68
2023-04-04T21:27:39.358Z,71.05
2023-04-04T21:30:44.598Z,72.00
2023-04-04T21:33:29.643Z,72.19
2023-04-04T21:36:28.269Z,72.58
2023-04-04T21:39:25.592Z,71.97
2023-04-04T21:42:10.535Z,72.54
2023-04-04T21:44:55.899Z,72.59
2023-04-04T21:47:41.210Z,72.35
2023-04-04T21:50:26.275Z,72.70
2023-04-04T21:53:11.536Z,72.81
2023-04-04T21:55:57.088Z,72.90
2023-04-04T21:58:42.626Z,72.28
2023-04-04T22:01:28.195Z,71.97
2023-04-04T22:04:13.302Z,71.68
2023-04-04T22:06:58.417Z,71.91
2023-04-04T22:09:43.745Z,71.81
2023-04-04T22:12:28.584Z,72.31
2023-04-04T22:15:13.577Z,72.67
2023-04-04T22:18:05.117Z,72.47
2023-04-04T22:20:54.831Z,72.55
2023-04-04T22:23:40.331Z,72.48
2023-04-04T22:26:34.590Z,72.82
2023-04-04T22:29:20.028Z,73.70
2023-04-04T22:32:05.505Z,74.00
2023-04-04T22:34:50.757Z,74.96
2023-04-04T22:37:36.042Z,75.56
2023-04-04T22:40:21.288Z,76.59
2023-04-04T22:43:06.268Z,77.80
2023-04-04T22:45:51.851Z,78.63
2023-04-04T22:48:41.067Z,79.25
2023-04-04T22:51:26.203Z,79.54
2023-04-04T22:54:15.782Z,79.35
2023-04-04T22:57:01.298Z,79.78
2023-04-04T22:59:46.524Z,80.17
2023-04-04T23:02:31.753Z,80.09
2023-04-04T23:05:18.564Z,80.37
2023-04-04T23:08:03.945Z,80.75
2023-04-04T23:10:48.921Z,81.07
2023-04-04T23:13:34.786Z,81.33
2023-04-04T23:16:23.598Z,81.34
2023-04-04T23:19:09.007Z,81.29
2023-04-04T23:21:54.308Z,81.65
2023-04-04T23:24:40.290Z,81.45
2023-04-04T23:27:25.564Z,81.27
2023-04-04T23:30:11.704Z,81.23
2023-04-04T23:32:56.712Z,81.95
2023-04-04T23:35:42.003Z,82.41
2023-04-04T23:38:27.054Z,83.00
2023-04-04T23:41:12.636Z,83.37
2023-04-04T23:43:57.734Z,83.87
2023-04-04T23:46:42.991Z,84.43
2023-04-04T23:49:28.167Z,84.82
2023-04-04T23:52:13.059Z,85.33
2023-04-04T23:54:58.022Z,85.28
2023-04-04T23:57:43.828Z,85.02
